EGYH

Holbeach Airport

United Kingdom
METAR EGYH 171450Z 29006KT CAVOK 22/10 Q1015 BLU
Observed Flight Rules
Jul-17 @ 14:50 UTC (8 hours ago) Visual Flight Rules
Wind Visibility Clouds
290° at 6 knots 10,000+ meters
  • Clear skies
Temperatures Readings
Current 22°C / 72°F
Dewpoint 10°C / 50°F
Humidity 47%
Altimeter 29.97" Hg
Pressure 1015 hPa
Elevation 3
METAR EGYH 171450Z 29006KT CAVOK 22/10 Q1015 BLU
Observed Flight Rules
Jul-17 @ 14:50 UTC
(8 hours ago)
VFR
Wind Visibility
290° at 6 knots 10,000+ meters
Clouds
  • Clear skies
Temperature Dewpoint
22°C / 72°F 10°C / 50°F
Humidity Altimeter Pressure
47% 29.97" Hg 1015 hPa